createdAt,value
2022-12-05T00:00:32.467Z,88.73
2022-12-05T00:01:32.449Z,88.62
2022-12-05T00:02:32.500Z,88.73
2022-12-05T00:03:32.435Z,88.73
2022-12-05T00:04:32.509Z,88.73
2022-12-05T00:05:32.408Z,88.62
2022-12-05T00:06:32.409Z,88.62
2022-12-05T00:07:32.491Z,88.62
2022-12-05T00:08:32.398Z,88.62
2022-12-05T00:09:32.375Z,88.73
2022-12-05T00:10:32.370Z,88.73
2022-12-05T00:11:32.349Z,88.73
2022-12-05T00:12:32.379Z,88.73
2022-12-05T00:13:32.330Z,88.73
2022-12-05T00:14:32.328Z,88.84
2022-12-05T00:15:32.319Z,88.84
2022-12-05T00:16:32.373Z,88.84
2022-12-05T00:17:32.312Z,88.84
2022-12-05T00:18:32.291Z,88.84
2022-12-05T00:19:32.269Z,88.84
2022-12-05T00:20:32.263Z,88.84
2022-12-05T00:21:32.250Z,88.94
2022-12-05T00:22:32.269Z,88.94
2022-12-05T00:23:32.231Z,88.94
2022-12-05T00:24:32.223Z,88.84
2022-12-05T00:25:32.216Z,88.84
2022-12-05T00:26:32.210Z,88.84
2022-12-05T00:27:32.208Z,88.84
2022-12-05T00:28:32.184Z,88.94
2022-12-05T00:29:32.177Z,88.94
2022-12-05T00:30:32.166Z,88.94
2022-12-05T00:31:32.200Z,88.94
2022-12-05T00:32:32.165Z,88.84
2022-12-05T00:33:32.134Z,88.84
2022-12-05T00:34:32.122Z,88.84
2022-12-05T00:35:32.107Z,88.84
2022-12-05T00:36:32.106Z,88.84
2022-12-05T00:37:32.109Z,88.84
2022-12-05T00:38:32.088Z,88.94
2022-12-05T00:39:32.069Z,88.94
2022-12-05T00:40:32.067Z,88.94
2022-12-05T00:41:32.060Z,88.94
2022-12-05T00:42:32.065Z,88.84
2022-12-05T00:43:32.033Z,88.73
2022-12-05T00:44:32.031Z,88.73
2022-12-05T00:45:32.094Z,88.73
2022-12-05T00:46:32.124Z,88.73
2022-12-05T00:47:32.008Z,88.73
2022-12-05T00:48:32.013Z,88.73
2022-12-05T00:49:31.970Z,88.84
2022-12-05T00:50:31.967Z,88.84
2022-12-05T00:51:31.947Z,88.84
2022-12-05T00:52:31.968Z,88.84
2022-12-05T00:53:31.930Z,88.84
2022-12-05T00:54:31.929Z,88.84
2022-12-05T00:55:31.911Z,88.73
2022-12-05T00:56:31.903Z,88.62
2022-12-05T00:57:31.911Z,88.62
2022-12-05T00:58:31.895Z,88.62
2022-12-05T00:59:31.862Z,88.62
2022-12-05T01:00:31.862Z,88.62
2022-12-05T01:01:31.924Z,88.62
2022-12-05T01:02:31.871Z,88.52
2022-12-05T01:03:31.909Z,88.52
2022-12-05T01:04:31.824Z,88.62
2022-12-05T01:05:31.803Z,88.62
2022-12-05T01:06:31.818Z,88.52
2022-12-05T01:07:31.851Z,88.42
2022-12-05T01:08:31.815Z,88.42
2022-12-05T01:09:31.771Z,88.42
2022-12-05T01:10:31.763Z,88.42
2022-12-05T01:11:34.050Z,88.21
2022-12-05T01:12:32.761Z,88.31
2022-12-05T01:13:31.728Z,88.42
2022-12-05T01:14:31.726Z,88.42
2022-12-05T01:15:31.707Z,88.42
2022-12-05T01:16:31.752Z,88.42
2022-12-05T01:17:31.705Z,88.42
2022-12-05T01:18:31.694Z,88.52
2022-12-05T01:19:31.667Z,88.52
2022-12-05T01:20:31.666Z,88.52
2022-12-05T01:21:31.667Z,88.52
2022-12-05T01:22:31.660Z,88.42
2022-12-05T01:23:31.628Z,88.31
2022-12-05T01:24:31.619Z,88.21
2022-12-05T01:25:31.617Z,88.21
2022-12-05T01:26:31.612Z,88.10
2022-12-05T01:27:31.609Z,88.21
2022-12-05T01:28:31.644Z,88.21
2022-12-05T01:29:31.570Z,88.17
2022-12-05T01:30:31.569Z,88.31
2022-12-05T01:31:31.621Z,88.31
2022-12-05T01:32:31.567Z,88.21
2022-12-05T01:33:31.530Z,88.21
2022-12-05T01:34:31.529Z,88.31
2022-12-05T01:35:31.509Z,88.31
2022-12-05T01:36:31.502Z,88.31
2022-12-05T01:37:31.503Z,88.21
2022-12-05T01:38:31.492Z,88.10
2022-12-05T01:39:31.469Z,88.10
2022-12-05T01:40:31.461Z,88.10
2022-12-05T01:41:31.453Z,88.10
2022-12-05T01:42:31.473Z,88.07
2022-12-05T01:43:31.434Z,88.10
2022-12-05T01:44:31.431Z,87.96
2022-12-05T01:45:31.445Z,87.96
2022-12-05T01:46:31.506Z,88.00
2022-12-05T01:47:31.405Z,88.00
2022-12-05T01:48:31.381Z,87.86
2022-12-05T01:49:31.377Z,87.96
2022-12-05T01:50:31.364Z,87.96
2022-12-05T01:51:31.346Z,87.96
2022-12-05T01:52:31.358Z,87.96
2022-12-05T01:53:31.337Z,87.96
2022-12-05T01:54:31.322Z,88.07
2022-12-05T01:55:31.305Z,88.07
2022-12-05T01:56:31.306Z,87.96
2022-12-05T01:57:31.306Z,87.96
2022-12-05T01:58:31.288Z,87.96
2022-12-05T01:59:31.267Z,87.96
2022-12-05T02:00:31.266Z,87.96
2022-12-05T02:01:31.343Z,87.96
2022-12-05T02:02:31.339Z,88.07
2022-12-05T02:03:31.228Z,88.07
2022-12-05T02:04:31.219Z,88.07
2022-12-05T02:05:31.218Z,88.07
2022-12-05T02:06:31.207Z,88.07
2022-12-05T02:07:31.235Z,88.07
2022-12-05T02:08:31.188Z,88.07
2022-12-05T02:09:31.191Z,88.07
2022-12-05T02:10:31.168Z,87.96
2022-12-05T02:11:31.150Z,87.96
2022-12-05T02:12:31.157Z,87.96
2022-12-05T02:13:31.130Z,87.96
2022-12-05T02:14:31.119Z,87.96
2022-12-05T02:15:31.113Z,88.00
2022-12-05T02:16:31.145Z,88.00
2022-12-05T02:17:31.101Z,88.00
2022-12-05T02:18:31.081Z,88.00
2022-12-05T02:19:31.062Z,88.00
2022-12-05T02:20:31.061Z,88.00
2022-12-05T02:21:31.051Z,88.00
2022-12-05T02:22:31.060Z,88.00
2022-12-05T02:23:31.022Z,88.10
2022-12-05T02:24:31.023Z,88.21
2022-12-05T02:25:31.014Z,88.21
2022-12-05T02:26:31.004Z,88.42
2022-12-05T02:27:30.986Z,88.42
2022-12-05T02:28:30.993Z,88.42
2022-12-05T02:29:30.967Z,88.52
2022-12-05T02:30:30.965Z,88.52
2022-12-05T02:31:31.025Z,88.52
2022-12-05T02:32:30.936Z,88.62
2022-12-05T02:33:30.965Z,88.52
2022-12-05T02:34:30.925Z,88.52
2022-12-05T02:35:30.916Z,88.52
2022-12-05T02:36:30.913Z,88.42
2022-12-05T02:37:30.893Z,88.52
2022-12-05T02:38:30.897Z,88.52
2022-12-05T02:39:30.877Z,88.62
2022-12-05T02:40:30.857Z,88.62
2022-12-05T02:41:30.854Z,88.62
2022-12-05T02:42:30.835Z,88.62
2022-12-05T02:43:30.848Z,88.62
2022-12-05T02:44:30.821Z,88.62
2022-12-05T02:45:30.857Z,88.73
2022-12-05T02:46:30.879Z,88.73
2022-12-05T02:47:30.788Z,88.73
2022-12-05T02:48:30.798Z,88.73
2022-12-05T02:49:30.781Z,88.73
2022-12-05T02:50:30.765Z,88.73
2022-12-05T02:51:30.751Z,88.84
2022-12-05T02:52:30.749Z,88.84
2022-12-05T02:53:30.763Z,88.84
2022-12-05T02:54:30.710Z,88.73
2022-12-05T02:55:30.710Z,88.73
2022-12-05T02:56:30.698Z,88.62
2022-12-05T02:57:30.690Z,88.62
2022-12-05T02:58:30.697Z,88.62
2022-12-05T02:59:30.672Z,88.52
2022-12-05T03:00:30.652Z,88.62
2022-12-05T03:01:30.745Z,88.62
2022-12-05T03:02:30.648Z,88.73
2022-12-05T03:03:30.650Z,88.73
2022-12-05T03:04:30.708Z,88.73
2022-12-05T03:05:30.611Z,88.84
2022-12-05T03:06:30.601Z,88.73
2022-12-05T03:07:30.670Z,88.73
2022-12-05T03:08:30.591Z,88.73
2022-12-05T03:09:30.574Z,88.62
2022-12-05T03:10:30.553Z,88.52
2022-12-05T03:11:30.563Z,88.52
2022-12-05T03:12:30.534Z,88.42
2022-12-05T03:13:30.544Z,88.31
2022-12-05T03:14:30.528Z,88.31
2022-12-05T03:15:30.514Z,88.31
2022-12-05T03:16:30.536Z,88.31
2022-12-05T03:17:30.485Z,88.21
2022-12-05T03:18:30.494Z,88.21
2022-12-05T03:19:30.473Z,88.21
2022-12-05T03:20:30.457Z,88.21
2022-12-05T03:21:30.452Z,88.21
2022-12-05T03:22:30.429Z,88.21
2022-12-05T03:23:30.460Z,88.21
2022-12-05T03:24:30.419Z,88.21
2022-12-05T03:25:30.408Z,88.21
2022-12-05T03:26:30.397Z,88.21
2022-12-05T03:27:30.388Z,88.25
2022-12-05T03:28:30.398Z,88.25
2022-12-05T03:29:30.371Z,88.15
2022-12-05T03:30:30.400Z,88.15
2022-12-05T03:31:30.350Z,88.15
2022-12-05T03:32:30.329Z,88.15
2022-12-05T03:33:30.347Z,88.15
2022-12-05T03:34:30.320Z,88.15
2022-12-05T03:35:30.311Z,88.25
2022-12-05T03:36:30.290Z,88.25
2022-12-05T03:37:30.301Z,88.25
2022-12-05T03:38:30.312Z,88.25
2022-12-05T03:39:30.272Z,88.25
2022-12-05T03:40:30.251Z,88.25
2022-12-05T03:41:30.249Z,88.25
2022-12-05T03:42:30.232Z,88.25
2022-12-05T03:43:30.244Z,88.25
2022-12-05T03:44:30.223Z,88.35
2022-12-05T03:45:30.215Z,88.35
2022-12-05T03:46:30.346Z,88.46
2022-12-05T03:47:30.190Z,88.46
2022-12-05T03:48:30.195Z,88.46
2022-12-05T03:49:33.928Z,88.46
2022-12-05T03:50:30.156Z,88.56
2022-12-05T03:51:30.146Z,88.56
2022-12-05T03:52:30.133Z,88.56
2022-12-05T03:53:30.144Z,88.56
2022-12-05T03:54:30.114Z,88.56
2022-12-05T03:55:30.114Z,88.56
2022-12-05T03:56:30.094Z,88.56
2022-12-05T03:57:30.105Z,88.56
2022-12-05T03:58:30.097Z,88.60
2022-12-05T03:59:30.068Z,88.67
2022-12-05T04:00:30.055Z,88.71
2022-12-05T04:01:30.109Z,88.71
2022-12-05T04:02:30.038Z,88.67
2022-12-05T04:03:30.076Z,88.81
2022-12-05T04:04:30.016Z,88.77
2022-12-05T04:05:30.008Z,88.71
2022-12-05T04:06:29.996Z,88.81
2022-12-05T04:07:30.115Z,88.81
2022-12-05T04:08:30.008Z,88.81
2022-12-05T04:09:29.967Z,88.92
2022-12-05T04:10:29.975Z,89.02
2022-12-05T04:11:29.950Z,89.02
2022-12-05T04:12:29.931Z,88.92
2022-12-05T04:13:29.989Z,88.92
2022-12-05T04:14:29.938Z,88.92
2022-12-05T04:15:29.962Z,88.92
2022-12-05T04:16:29.957Z,88.92
2022-12-05T04:17:29.892Z,88.92
2022-12-05T04:18:29.891Z,89.02
2022-12-05T04:19:29.872Z,88.92
2022-12-05T04:20:29.852Z,88.92
2022-12-05T04:21:29.850Z,89.02
2022-12-05T04:22:29.838Z,89.02
2022-12-05T04:23:29.862Z,89.02
2022-12-05T04:24:29.823Z,89.12
2022-12-05T04:25:29.821Z,89.12
2022-12-05T04:26:29.800Z,89.12
2022-12-05T04:27:29.791Z,89.12
2022-12-05T04:28:29.776Z,89.02
2022-12-05T04:29:29.793Z,89.02
2022-12-05T04:30:29.756Z,89.02
2022-12-05T04:31:29.817Z,89.02
2022-12-05T04:32:29.734Z,89.02
2022-12-05T04:33:29.724Z,89.12
2022-12-05T04:34:29.739Z,89.02
2022-12-05T04:35:29.712Z,89.02
2022-12-05T04:36:29.694Z,89.12
2022-12-05T04:37:29.696Z,89.02
2022-12-05T04:38:29.677Z,89.02
2022-12-05T04:39:29.685Z,89.02
2022-12-05T04:40:29.666Z,89.02
2022-12-05T04:41:29.650Z,89.02
2022-12-05T04:42:29.636Z,89.02
2022-12-05T04:43:29.634Z,89.12
2022-12-05T04:44:29.626Z,89.12
2022-12-05T04:45:29.610Z,89.12
2022-12-05T04:46:29.639Z,89.23
2022-12-05T04:47:29.588Z,89.23
2022-12-05T04:48:29.574Z,89.33
2022-12-05T04:49:29.619Z,89.33
2022-12-05T04:50:29.552Z,89.23
2022-12-05T04:51:29.558Z,89.23
2022-12-05T04:52:29.546Z,89.33
2022-12-05T04:53:29.537Z,89.33
2022-12-05T04:54:29.529Z,89.33
2022-12-05T04:55:29.517Z,89.33
2022-12-05T04:56:29.492Z,89.33
2022-12-05T04:57:29.489Z,89.43
2022-12-05T04:58:29.472Z,89.33
2022-12-05T04:59:29.480Z,89.33
2022-12-05T05:00:29.450Z,89.33
2022-12-05T05:01:29.510Z,89.33
2022-12-05T05:02:29.461Z,89.33
2022-12-05T05:03:29.429Z,89.43
2022-12-05T05:04:29.433Z,89.43
2022-12-05T05:05:29.404Z,89.43
2022-12-05T05:06:29.392Z,89.43
2022-12-05T05:07:29.445Z,89.43
2022-12-05T05:08:29.374Z,89.43
2022-12-05T05:09:29.391Z,89.33
2022-12-05T05:10:29.364Z,89.33
2022-12-05T05:11:29.350Z,89.33
2022-12-05T05:12:29.333Z,89.23
2022-12-05T05:13:29.342Z,89.33
2022-12-05T05:14:29.336Z,89.33
2022-12-05T05:15:29.306Z,89.33
2022-12-05T05:16:29.375Z,89.43
2022-12-05T05:17:29.286Z,89.43
2022-12-05T05:18:29.277Z,89.54
2022-12-05T05:19:29.287Z,89.54
2022-12-05T05:20:29.256Z,89.54
2022-12-05T05:21:29.255Z,89.54
2022-12-05T05:22:29.239Z,89.54
2022-12-05T05:23:29.228Z,89.54
2022-12-05T05:24:29.236Z,89.54
2022-12-05T05:25:29.208Z,89.54
2022-12-05T05:26:29.195Z,89.43
2022-12-05T05:27:29.195Z,89.33
2022-12-05T05:28:29.176Z,89.33
2022-12-05T05:29:29.190Z,89.33
2022-12-05T05:30:29.175Z,89.43
2022-12-05T05:31:29.226Z,89.43
2022-12-05T05:32:29.130Z,89.33
2022-12-05T05:33:29.135Z,89.43
2022-12-05T05:34:29.132Z,89.54
2022-12-05T05:35:29.109Z,89.64
2022-12-05T05:36:29.091Z,89.64
2022-12-05T05:37:29.109Z,89.64
2022-12-05T05:38:29.077Z,89.64
2022-12-05T05:39:29.090Z,89.64
2022-12-05T05:40:29.051Z,89.64
2022-12-05T05:41:29.050Z,89.64
2022-12-05T05:42:29.039Z,89.75
2022-12-05T05:43:29.050Z,89.85
2022-12-05T05:44:29.031Z,89.85
2022-12-05T05:45:29.011Z,89.89
2022-12-05T05:46:29.011Z,89.89
2022-12-05T05:47:29.000Z,90.00
2022-12-05T05:48:28.972Z,90.00
2022-12-05T05:49:28.997Z,90.00
2022-12-05T05:50:28.963Z,90.00
2022-12-05T05:51:28.951Z,90.00
2022-12-05T05:52:28.933Z,90.00
2022-12-05T05:53:28.936Z,90.10
2022-12-05T05:54:28.934Z,90.10
2022-12-05T05:55:28.913Z,90.10
2022-12-05T05:56:28.904Z,90.10
2022-12-05T05:57:28.893Z,90.10
2022-12-05T05:58:28.876Z,90.06
2022-12-05T05:59:28.906Z,90.10
2022-12-05T06:00:28.856Z,90.10
2022-12-05T06:01:28.850Z,90.10
2022-12-05T06:02:28.893Z,90.10
2022-12-05T06:03:28.955Z,90.20
2022-12-05T06:04:28.873Z,90.10
2022-12-05T06:05:28.815Z,90.10
2022-12-05T06:06:28.795Z,90.00
2022-12-05T06:07:29.042Z,90.10
2022-12-05T06:08:28.835Z,90.20
2022-12-05T06:09:28.787Z,90.31
2022-12-05T06:10:28.758Z,90.31
2022-12-05T06:11:28.751Z,90.41
2022-12-05T06:12:28.743Z,90.41
2022-12-05T06:13:28.728Z,90.52
2022-12-05T06:14:28.729Z,90.31
2022-12-05T06:15:28.713Z,90.31
2022-12-05T06:16:28.729Z,90.20
2022-12-05T06:17:28.699Z,90.20
2022-12-05T06:18:28.709Z,90.06
2022-12-05T06:19:28.699Z,90.06
2022-12-05T06:20:28.663Z,89.95
2022-12-05T06:21:28.652Z,89.85
2022-12-05T06:22:28.632Z,89.95
2022-12-05T06:23:28.634Z,89.95
2022-12-05T06:24:28.632Z,89.95
2022-12-05T06:25:28.624Z,89.95
2022-12-05T06:26:28.605Z,89.95
2022-12-05T06:27:28.592Z,89.95
2022-12-05T06:28:28.573Z,89.95
2022-12-05T06:29:33.497Z,89.95
2022-12-05T06:30:29.553Z,89.95
2022-12-05T06:31:28.654Z,89.95
2022-12-05T06:32:28.533Z,89.95
2022-12-05T06:33:28.534Z,90.06
2022-12-05T06:34:28.533Z,89.95
2022-12-05T06:35:28.513Z,90.10
2022-12-05T06:36:28.495Z,90.06
2022-12-05T06:37:28.494Z,89.95
2022-12-05T06:38:28.485Z,89.95
2022-12-05T06:39:28.494Z,90.00
2022-12-05T06:40:28.454Z,90.10
2022-12-05T06:41:28.446Z,90.10
2022-12-05T06:42:28.437Z,90.16
2022-12-05T06:43:28.433Z,90.26
2022-12-05T06:44:28.428Z,90.16
2022-12-05T06:45:28.432Z,90.06
2022-12-05T06:46:28.458Z,90.06
2022-12-05T06:47:28.385Z,90.06
2022-12-05T06:48:28.382Z,90.06
2022-12-05T06:49:32.632Z,89.95
2022-12-05T06:50:29.359Z,89.95
2022-12-05T06:51:28.377Z,89.85
2022-12-05T06:52:28.338Z,89.85
2022-12-05T06:53:28.282Z,89.89
2022-12-05T06:54:28.287Z,90.00
2022-12-05T06:55:28.249Z,90.00
2022-12-05T06:56:28.300Z,90.10
2022-12-05T06:57:28.280Z,90.20
2022-12-05T06:58:28.279Z,90.20
2022-12-05T06:59:28.290Z,90.31
2022-12-05T07:00:28.280Z,90.37
2022-12-05T07:01:28.310Z,90.41
2022-12-05T07:02:28.316Z,90.26
2022-12-05T07:03:28.181Z,90.26
2022-12-05T07:04:28.241Z,90.16
2022-12-05T07:05:28.160Z,90.16
2022-12-05T07:06:28.144Z,90.06
2022-12-05T07:07:28.201Z,90.06
2022-12-05T07:08:28.132Z,90.06
2022-12-05T07:09:28.161Z,90.06
2022-12-05T07:10:28.106Z,90.06
2022-12-05T07:11:28.095Z,89.95
2022-12-05T07:12:28.093Z,89.95
2022-12-05T07:13:28.074Z,89.95
2022-12-05T07:14:57.992Z,89.85
2022-12-05T07:15:29.055Z,89.85
2022-12-05T07:16:28.077Z,89.85
2022-12-05T07:17:28.034Z,89.95
2022-12-05T07:18:28.043Z,89.85
2022-12-05T07:19:28.036Z,89.85
2022-12-05T07:20:38.440Z,89.85
2022-12-05T07:21:28.987Z,89.85
2022-12-05T07:22:27.985Z,89.85
2022-12-05T07:23:27.976Z,89.95
2022-12-05T07:24:27.966Z,90.06
2022-12-05T07:25:27.971Z,89.95
2022-12-05T07:26:27.945Z,89.95
2022-12-05T07:27:28.515Z,89.95
2022-12-05T07:28:27.933Z,89.95
2022-12-05T07:29:27.907Z,89.95
2022-12-05T07:30:28.002Z,89.95
2022-12-05T07:31:27.934Z,90.06
2022-12-05T07:32:27.916Z,90.06
2022-12-05T07:33:27.868Z,90.06
2022-12-05T07:34:27.866Z,90.06
2022-12-05T07:35:27.859Z,90.06
2022-12-05T07:36:27.847Z,89.95
2022-12-05T07:37:27.852Z,89.95
2022-12-05T07:38:27.829Z,89.95
2022-12-05T07:39:27.817Z,89.95
2022-12-05T07:40:27.889Z,89.95
2022-12-05T07:41:27.790Z,90.06
2022-12-05T07:42:27.782Z,90.06
2022-12-05T07:43:27.772Z,90.16
2022-12-05T07:44:27.774Z,90.16
2022-12-05T07:45:27.835Z,90.16
2022-12-05T07:46:27.808Z,90.16
2022-12-05T07:47:27.830Z,90.16
2022-12-05T07:48:27.722Z,90.06
2022-12-05T07:49:27.711Z,90.06
2022-12-05T07:50:27.770Z,90.06
2022-12-05T07:51:27.692Z,90.06
2022-12-05T07:52:27.720Z,90.06
2022-12-05T07:53:27.671Z,90.16
2022-12-05T07:54:27.664Z,90.16
2022-12-05T07:55:27.672Z,90.16
2022-12-05T07:56:27.693Z,90.16
2022-12-05T07:57:27.632Z,90.16
2022-12-05T07:58:27.624Z,90.16
2022-12-05T07:59:27.608Z,90.16
2022-12-05T08:00:27.699Z,90.16
2022-12-05T08:01:27.718Z,90.06
2022-12-05T08:02:27.687Z,89.95
2022-12-05T08:03:27.573Z,89.95
2022-12-05T08:04:27.576Z,89.95
2022-12-05T08:05:27.568Z,89.85
2022-12-05T08:06:27.556Z,89.85
2022-12-05T08:07:27.535Z,89.85
2022-12-05T08:08:27.525Z,89.85
2022-12-05T08:09:27.509Z,89.85
2022-12-05T08:10:27.517Z,89.85
2022-12-05T08:11:27.487Z,89.85
2022-12-05T08:12:27.486Z,89.85
2022-12-05T08:13:27.478Z,89.95
2022-12-05T08:14:27.466Z,89.95
2022-12-05T08:15:27.498Z,89.85
2022-12-05T08:16:27.532Z,89.95
2022-12-05T08:17:27.428Z,90.06
2022-12-05T08:18:27.747Z,90.16
2022-12-05T08:19:27.416Z,90.16
2022-12-05T08:20:27.425Z,90.26
2022-12-05T08:21:27.389Z,90.37
2022-12-05T08:22:27.390Z,90.37
2022-12-05T08:23:27.372Z,90.26
2022-12-05T08:24:27.363Z,90.26
2022-12-05T08:25:27.385Z,90.26
2022-12-05T08:26:27.353Z,90.26
2022-12-05T08:27:27.332Z,90.26
2022-12-05T08:28:27.351Z,90.16
2022-12-05T08:29:27.312Z,90.16
2022-12-05T08:30:27.503Z,90.16
2022-12-05T08:31:27.534Z,90.16
2022-12-05T08:32:27.296Z,90.16
2022-12-05T08:33:27.271Z,90.16
2022-12-05T08:34:27.264Z,90.06
2022-12-05T08:35:27.269Z,90.06
2022-12-05T08:36:27.244Z,90.16
2022-12-05T08:37:27.233Z,90.16
2022-12-05T08:38:27.224Z,90.16
2022-12-05T08:39:27.213Z,90.26
2022-12-05T08:40:27.223Z,90.26
2022-12-05T08:41:27.205Z,90.26
2022-12-05T08:42:27.197Z,90.26
2022-12-05T08:43:27.174Z,90.26
2022-12-05T08:44:27.165Z,90.16
2022-12-05T08:45:27.166Z,90.16
2022-12-05T08:46:27.244Z,90.06
2022-12-05T08:47:27.139Z,90.16
2022-12-05T08:48:29.425Z,90.16
2022-12-05T08:49:27.113Z,90.16
2022-12-05T08:50:27.136Z,90.37
2022-12-05T08:51:27.112Z,90.47
2022-12-05T08:52:27.087Z,90.58
2022-12-05T08:53:27.077Z,90.69
2022-12-05T08:54:27.066Z,90.69
2022-12-05T08:55:27.068Z,90.69
2022-12-05T08:56:27.708Z,90.58
2022-12-05T08:57:27.167Z,90.58
2022-12-05T08:58:27.029Z,90.58
2022-12-05T08:59:27.016Z,90.69
2022-12-05T09:00:27.018Z,90.69
2022-12-05T09:01:27.031Z,90.58
2022-12-05T09:02:27.065Z,90.58
2022-12-05T09:03:26.970Z,90.58
2022-12-05T09:04:26.969Z,90.58
2022-12-05T09:05:29.211Z,90.58
2022-12-05T09:06:26.947Z,90.69
2022-12-05T09:07:26.982Z,90.58
2022-12-05T09:08:26.921Z,90.58
2022-12-05T09:09:26.912Z,90.47
2022-12-05T09:10:26.923Z,90.47
2022-12-05T09:11:26.894Z,90.47
2022-12-05T09:12:26.882Z,90.58
2022-12-05T09:13:26.875Z,90.58
2022-12-05T09:14:26.866Z,90.58
2022-12-05T09:15:26.982Z,90.69
2022-12-05T09:16:27.364Z,90.64
2022-12-05T09:17:26.834Z,90.58
2022-12-05T09:18:26.897Z,90.54
2022-12-05T09:19:26.813Z,90.54
2022-12-05T09:20:26.826Z,90.54
2022-12-05T09:21:26.792Z,90.54
2022-12-05T09:22:29.524Z,90.54
2022-12-05T09:23:26.775Z,90.54
2022-12-05T09:24:26.765Z,90.54
2022-12-05T09:25:26.765Z,90.44
2022-12-05T09:26:26.746Z,90.44
2022-12-05T09:27:26.746Z,90.44
2022-12-05T09:28:26.726Z,90.44
2022-12-05T09:29:26.710Z,90.54
2022-12-05T09:30:26.718Z,90.64
2022-12-05T09:31:26.804Z,90.64
2022-12-05T09:32:26.684Z,90.54
2022-12-05T09:33:26.669Z,90.33
2022-12-05T09:34:26.668Z,90.12
2022-12-05T09:35:26.687Z,90.12
2022-12-05T09:36:26.666Z,90.12
2022-12-05T09:37:41.672Z,90.44
2022-12-05T09:38:27.628Z,90.54
2022-12-05T09:39:26.608Z,90.64
2022-12-05T09:40:26.618Z,90.64
2022-12-05T09:41:26.598Z,90.75
2022-12-05T09:42:26.589Z,90.75
2022-12-05T09:43:26.570Z,90.85
2022-12-05T09:44:26.571Z,90.85
2022-12-05T09:45:26.581Z,90.75
2022-12-05T09:46:29.278Z,90.75
2022-12-05T09:47:26.532Z,90.75
2022-12-05T09:48:26.528Z,90.85
2022-12-05T09:49:26.512Z,90.85
2022-12-05T09:50:26.522Z,90.85
2022-12-05T09:51:26.493Z,90.85
2022-12-05T09:52:26.482Z,90.85
2022-12-05T09:53:26.472Z,90.95
2022-12-05T09:54:26.483Z,90.85
2022-12-05T09:55:26.475Z,90.85
2022-12-05T09:56:26.445Z,90.75
2022-12-05T09:57:30.545Z,90.75
2022-12-05T09:58:27.442Z,90.54
2022-12-05T09:59:26.415Z,90.33
2022-12-05T10:00:26.434Z,90.33
2022-12-05T10:01:26.451Z,90.33
2022-12-05T10:02:26.401Z,90.44
2022-12-05T10:03:26.378Z,90.54
2022-12-05T10:04:26.518Z,90.79
2022-12-05T10:05:26.484Z,90.79
2022-12-05T10:06:26.348Z,90.85
2022-12-05T10:07:26.333Z,90.95
2022-12-05T10:08:26.379Z,91.06
2022-12-05T10:09:26.321Z,91.06
2022-12-05T10:10:26.325Z,91.16
2022-12-05T10:11:26.288Z,91.27
2022-12-05T10:12:26.289Z,91.16
2022-12-05T10:13:26.277Z,91.06
2022-12-05T10:14:26.277Z,90.95
2022-12-05T10:15:26.267Z,90.85
2022-12-05T10:16:26.319Z,90.95
2022-12-05T10:17:26.227Z,91.06
2022-12-05T10:18:26.228Z,91.06
2022-12-05T10:19:26.208Z,90.95
2022-12-05T10:20:26.229Z,90.85
2022-12-05T10:21:26.200Z,90.85
2022-12-05T10:22:26.189Z,90.95
2022-12-05T10:23:55.486Z,91.16
2022-12-05T10:24:27.161Z,91.06
2022-12-05T10:25:26.169Z,91.06
2022-12-05T10:26:26.141Z,90.95
2022-12-05T10:27:26.137Z,90.95
2022-12-05T10:28:26.120Z,90.85
2022-12-05T10:29:26.109Z,90.95
2022-12-05T10:30:26.122Z,91.06
2022-12-05T10:31:26.158Z,91.02
2022-12-05T10:32:26.083Z,91.02
2022-12-05T10:33:26.070Z,90.91
2022-12-05T10:34:26.062Z,90.81
2022-12-05T10:35:26.065Z,90.60
2022-12-05T10:36:26.043Z,90.39
2022-12-05T10:37:26.029Z,90.29
2022-12-05T10:38:26.025Z,90.19
2022-12-05T10:39:26.013Z,90.19
2022-12-05T10:40:26.043Z,90.39
2022-12-05T10:41:25.996Z,90.50
2022-12-05T10:42:25.984Z,90.70
2022-12-05T10:43:25.974Z,90.70
2022-12-05T10:44:25.965Z,90.29
2022-12-05T10:45:25.975Z,90.19
2022-12-05T10:46:25.992Z,90.23
2022-12-05T10:47:25.927Z,90.39
2022-12-05T10:48:25.926Z,90.54
2022-12-05T10:49:25.916Z,90.64
2022-12-05T10:50:25.905Z,90.64
2022-12-05T10:51:25.906Z,90.75
2022-12-05T10:52:25.886Z,90.95
2022-12-05T10:53:25.873Z,90.95
2022-12-05T10:54:25.869Z,91.06
2022-12-05T10:55:25.855Z,91.06
2022-12-05T10:56:30.556Z,90.95
2022-12-05T10:57:26.827Z,90.95
2022-12-05T10:58:25.837Z,91.16
2022-12-05T10:59:25.820Z,91.16
2022-12-05T11:00:25.806Z,91.27
2022-12-05T11:01:25.875Z,91.27
2022-12-05T11:02:25.898Z,91.27
2022-12-05T11:03:25.777Z,91.37
2022-12-05T11:04:25.762Z,91.37
2022-12-05T11:05:25.799Z,91.37
2022-12-05T11:06:25.776Z,91.37
2022-12-05T11:07:25.732Z,91.37
2022-12-05T11:08:48.147Z,91.47
2022-12-05T11:09:26.809Z,91.58
2022-12-05T11:10:27.121Z,91.58
2022-12-05T11:11:25.723Z,91.72
2022-12-05T11:12:25.680Z,91.83
2022-12-05T11:13:25.674Z,92.03
2022-12-05T11:14:25.663Z,92.03
2022-12-05T11:15:25.717Z,92.14
2022-12-05T11:16:25.732Z,92.24
2022-12-05T11:17:25.633Z,92.24
2022-12-05T11:18:25.632Z,92.35
2022-12-05T11:19:25.624Z,92.45
2022-12-05T11:20:25.593Z,92.55
2022-12-05T11:21:25.613Z,92.80
2022-12-05T11:22:25.580Z,93.01
2022-12-05T11:23:25.575Z,93.12
2022-12-05T11:24:25.555Z,93.23
2022-12-05T11:25:25.557Z,93.43
2022-12-05T11:26:25.568Z,93.54
2022-12-05T11:27:25.536Z,93.74
2022-12-05T11:28:25.524Z,93.85
2022-12-05T11:29:25.516Z,93.95
2022-12-05T11:30:25.505Z,94.06
2022-12-05T11:31:25.555Z,94.26
2022-12-05T11:32:25.478Z,94.47
2022-12-05T11:33:25.486Z,94.47
2022-12-05T11:34:25.463Z,94.68
2022-12-05T11:35:25.458Z,94.78
2022-12-05T11:36:25.460Z,94.78
2022-12-05T11:37:25.444Z,94.89
2022-12-05T11:38:25.425Z,94.99
2022-12-05T11:39:25.420Z,94.99
2022-12-05T11:40:29.448Z,95.09
2022-12-05T11:41:26.410Z,95.09
2022-12-05T11:42:25.379Z,95.09
2022-12-05T11:43:25.369Z,94.99
2022-12-05T11:44:25.370Z,94.99
2022-12-05T11:45:25.358Z,94.89
2022-12-05T11:46:27.086Z,94.99
2022-12-05T11:47:25.336Z,95.09
2022-12-05T11:48:25.331Z,95.09
2022-12-05T11:49:25.311Z,95.09
2022-12-05T11:50:25.304Z,95.20
2022-12-05T11:51:25.313Z,95.20
2022-12-05T11:52:25.280Z,95.30
2022-12-05T11:53:25.279Z,95.40
2022-12-05T11:54:42.031Z,95.40
2022-12-05T11:55:26.251Z,95.40
2022-12-05T11:56:25.254Z,95.40
2022-12-05T11:57:25.241Z,95.51
2022-12-05T11:58:25.222Z,95.62
2022-12-05T11:59:25.223Z,95.51
2022-12-05T12:00:25.212Z,95.62
2022-12-05T12:01:25.213Z,95.72
2022-12-05T12:02:25.289Z,95.93
2022-12-05T12:03:29.849Z,96.03
2022-12-05T12:04:26.162Z,96.14
2022-12-05T12:05:25.155Z,96.24
2022-12-05T12:06:25.167Z,96.34
2022-12-05T12:07:25.135Z,96.34
2022-12-05T12:08:25.183Z,96.34
2022-12-05T12:09:25.115Z,96.55
2022-12-05T12:10:25.107Z,96.45
2022-12-05T12:11:25.117Z,96.45
2022-12-05T12:12:25.082Z,96.55
2022-12-05T12:13:25.076Z,96.66
2022-12-05T12:14:25.090Z,96.55
2022-12-05T12:15:25.056Z,96.55
2022-12-05T12:16:25.161Z,96.34
2022-12-05T12:17:25.061Z,96.24
2022-12-05T12:18:25.027Z,96.03
2022-12-05T12:19:25.015Z,95.93
2022-12-05T12:20:25.011Z,95.83
2022-12-05T12:21:25.055Z,95.72
2022-12-05T12:22:24.980Z,95.62
2022-12-05T12:23:24.979Z,95.62
2022-12-05T12:24:24.960Z,95.51
2022-12-05T12:25:24.959Z,95.51
2022-12-05T12:26:24.959Z,95.40
2022-12-05T12:27:24.936Z,95.09
2022-12-05T12:28:24.921Z,94.89
2022-12-05T12:29:24.918Z,94.99
2022-12-05T12:30:24.924Z,94.84
2022-12-05T12:31:24.978Z,94.84
2022-12-05T12:32:24.891Z,94.74
2022-12-05T12:33:27.334Z,94.64
2022-12-05T12:34:24.862Z,94.53
2022-12-05T12:35:24.862Z,94.64
2022-12-05T12:36:24.862Z,94.64
2022-12-05T12:37:24.832Z,94.74
2022-12-05T12:38:24.823Z,94.64
2022-12-05T12:39:24.822Z,94.64
2022-12-05T12:40:24.801Z,94.64
2022-12-05T12:41:24.868Z,94.64
2022-12-05T12:42:24.825Z,94.74
2022-12-05T12:43:52.098Z,94.74
2022-12-05T12:44:25.762Z,94.74
2022-12-05T12:45:25.610Z,94.74
2022-12-05T12:46:24.815Z,94.64
2022-12-05T12:47:24.737Z,94.53
2022-12-05T12:48:24.734Z,94.43
2022-12-05T12:49:24.717Z,94.43
2022-12-05T12:50:24.719Z,94.53
2022-12-05T12:51:24.718Z,94.53
2022-12-05T12:52:24.685Z,94.53